A03 weather

Langley Park Airstrip
Perth, Western Australia, Australia

Public forecast

Using degrees Celsius for public forecast. Weather courtesy of forecast.io.

METAR (pilot weather report)

Closest report is Perth International Airport, 5.2 nm (9.6 km) ENE. Retrieved 2019/04/26 05:30 UTC (0 seconds ago):

YPPH 260530Z 09016KT CAVOK 27/03 Q1023 NOSIG

TAF (pilot weather forecast)

Forecast is more than 12 hours old.

Closest forecast is Perth International Airport, 5.2 nm (9.6 km) ENE. Retrieved 2019/04/25 00:00 UTC (1 day ago):

TAF YPPH 252259Z 2600/2706 08014G24KT CAVOK FM260400 08012KT CAVOK FM270000 05014KT CAVOK